METAR Data
IDs: Format: Raw Decoded Include TAF

Data at: 2153 UTC 30 Jun 2022

METAR for:KGYH (Greenville/Donaldson, SC, US)
Text:KGYH 302047Z 17009KT 10SM BKN046 31/19 A3017
Temperature: 31.0°C ( 88°F)
Dewpoint: 19.0°C ( 66°F) [RH = 49%]
Pressure (altimeter):30.17 inches Hg (1021.8 mb)
Winds:from the S (170 degrees) at 10 MPH (9 knots; 4.6 m/s)
Visibility:10 or more sm (16+ km)
Ceiling:4600 feet AGL
Clouds: broken clouds at 4600 feet AGL

TAF for:KGYH (Greenville/Donaldson, SC, US)
Text:No data found